Time;durP1;ratioP1;P1;durP2;ratioP2;P2;SDS_P1;SDS_P2;PMS_P1;PMS_P2;Temp;Humidity;BMP_temperature;BMP_pressure;BME280_temperature;BME280_humidity;BME280_pressure;Samples;Min_cycle;Max_cycle;Signal;HPM_P1;HPM_P2
2021/04/10 00:00:46;;;;;;;5.57;0.82;;;;;;;4.33;51.49;101352.72;4977261;28;20491;-67
2021/04/10 00:03:12;;;;;;;12.32;1.10;;;;;;;4.39;51.44;101355.28;4978209;28;20043;-66
2021/04/10 00:05:38;;;;;;;7.35;1.10;;;;;;;4.31;51.57;101358.78;4963310;28;20548;-66
2021/04/10 00:08:03;;;;;;;4.18;0.68;;;;;;;4.22;51.33;101357.09;4961155;28;20113;-69
2021/04/10 00:10:30;;;;;;;6.00;0.77;;;;;;;4.19;51.90;101346.78;4964066;28;20049;-66
2021/04/10 00:12:57;;;;;;;6.15;1.48;;;;;;;4.22;51.68;101354.53;4982183;28;20058;-69
2021/04/10 00:15:24;;;;;;;12.07;1.52;;;;;;;4.20;51.88;101354.53;4963123;28;20040;-66
2021/04/10 00:17:50;;;;;;;9.50;1.17;;;;;;;4.09;51.75;101348.56;4963978;28;20136;-68
2021/04/10 00:20:18;;;;;;;11.38;0.98;;;;;;;4.09;51.82;101352.88;4958871;28;20528;-68
2021/04/10 00:22:44;;;;;;;4.82;1.20;;;;;;;4.19;51.93;101357.13;4961789;28;20486;-66
2021/04/10 00:25:11;;;;;;;7.80;0.90;;;;;;;4.24;51.33;101360.56;4959879;28;20063;-66
2021/04/10 00:27:38;;;;;;;5.28;1.13;;;;;;;4.30;51.51;101357.09;4960649;28;20525;-66
2021/04/10 00:30:05;;;;;;;2.70;0.85;;;;;;;4.23;51.51;101356.25;4975607;28;20042;-67
2021/04/10 00:32:31;;;;;;;3.00;0.80;;;;;;;4.22;51.74;101367.47;4974506;28;20089;-67
2021/04/10 00:34:56;;;;;;;3.92;1.25;;;;;;;4.16;51.84;101363.19;4962638;28;20034;-66
2021/04/10 00:37:22;;;;;;;8.73;1.02;;;;;;;4.07;52.03;101362.38;4989277;28;20045;-68
2021/04/10 00:39:47;;;;;;;10.00;1.77;;;;;;;4.07;52.12;101362.38;4987681;28;20038;-66
2021/04/10 00:42:13;;;;;;;7.05;1.25;;;;;;;4.09;52.02;101360.63;4963829;28;20142;-69
2021/04/10 00:44:38;;;;;;;3.60;0.80;;;;;;;4.05;52.23;101356.34;4957474;28;20070;-65
2021/04/10 00:47:04;;;;;;;7.97;1.13;;;;;;;4.04;52.27;101352.03;4958199;28;20672;-66
2021/04/10 00:49:29;;;;;;;3.45;0.57;;;;;;;4.11;52.44;101353.72;4963511;28;20035;-67
2021/04/10 00:51:55;;;;;;;7.30;1.00;;;;;;;4.17;52.17;101356.28;4972095;28;20038;-67
2021/04/10 00:54:21;;;;;;;6.05;1.10;;;;;;;4.21;51.68;101355.41;4961810;28;20526;-66
2021/04/10 00:56:47;;;;;;;6.88;1.20;;;;;;;4.19;51.78;101363.16;4959522;28;20572;-65
2021/04/10 00:59:12;;;;;;;10.82;1.35;;;;;;;4.12;51.53;101358.00;4958677;28;20037;-66
2021/04/10 01:01:38;;;;;;;10.95;2.38;;;;;;;4.12;51.75;101365.78;4978768;28;20039;-69
2021/04/10 01:04:05;;;;;;;19.80;3.15;;;;;;;4.00;51.79;101361.53;4973245;28;20081;-65
2021/04/10 01:06:32;;;;;;;3.88;1.33;;;;;;;3.92;52.07;101368.50;4959360;28;20043;-66
2021/04/10 01:08:58;;;;;;;11.38;1.23;;;;;;;3.85;52.55;101362.47;4960511;28;20032;-68
2021/04/10 01:11:29;;;;;;;11.30;0.73;;;;;;;3.94;52.29;101354.69;4958532;28;20035;-66
2021/04/10 01:14:13;;;;;;;3.55;0.57;;;;;;;3.96;52.38;101355.53;4961598;28;20034;-67
2021/04/10 01:16:46;;;;;;;5.05;0.85;;;;;;;3.96;52.63;101355.53;4973372;28;20047;-67
2021/04/10 01:19:34;;;;;;;7.20;1.00;;;;;;;3.98;52.44;101356.38;4990546;28;20050;-67
2021/04/10 01:22:28;;;;;;;3.40;0.60;;;;;;;4.10;51.98;101352.88;4960645;28;20027;-66
2021/04/10 01:25:07;;;;;;;9.32;1.08;;;;;;;4.13;51.71;101362.34;4958525;28;20046;-68
2021/04/10 01:27:46;;;;;;;5.90;0.63;;;;;;;4.04;51.72;101359.81;4960926;28;20049;-67
2021/04/10 01:30:20;;;;;;;9.93;0.90;;;;;;;3.99;52.09;101355.50;4960985;28;20069;-66
2021/04/10 01:33:01;;;;;;;8.38;1.23;;;;;;;4.07;52.12;101367.53;4962240;28;20122;-66
2021/04/10 01:35:36;;;;;;;6.75;0.75;;;;;;;3.97;51.70;101362.41;4973794;28;20030;-66
2021/04/10 01:38:06;;;;;;;4.95;0.60;;;;;;;3.91;51.88;101356.41;4960801;28;20090;-67
2021/04/10 01:40:34;;;;;;;4.40;0.70;;;;;;;3.84;52.10;101359.91;4974785;28;20030;-67
2021/04/10 01:43:03;;;;;;;5.13;0.30;;;;;;;3.98;51.86;101365.84;4959838;28;20031;-66
2021/04/10 01:45:29;;;;;;;9.23;1.20;;;;;;;3.86;52.03;101364.19;4958805;28;20482;-69
2021/04/10 01:48:17;;;;;;;6.00;0.98;;;;;;;3.87;52.08;101371.06;4988921;28;20097;-67
2021/04/10 01:50:43;;;;;;;3.35;0.63;;;;;;;3.85;51.89;101372.81;4974745;28;20066;-67
2021/04/10 01:53:11;;;;;;;7.45;0.63;;;;;;;3.94;51.81;101369.31;4964240;28;20041;-65
2021/04/10 01:55:39;;;;;;;4.18;0.73;;;;;;;3.94;51.84;101374.47;4957839;28;20139;-65
2021/04/10 01:58:09;;;;;;;4.75;0.40;;;;;;;4.01;51.63;101373.63;4981869;28;20030;-65
2021/04/10 02:00:38;;;;;;;7.45;0.63;;;;;;;3.97;51.31;101380.50;4978055;28;20061;-68
2021/04/10 02:03:09;;;;;;;5.47;0.65;;;;;;;3.99;51.05;101383.97;4977595;28;20106;-66
2021/04/10 02:05:37;;;;;;;10.43;0.88;;;;;;;4.01;51.11;101389.13;4965127;28;20078;-67
2021/04/10 02:08:30;;;;;;;8.48;0.52;;;;;;;3.94;51.04;101390.88;4981227;28;20039;-66
2021/04/10 02:11:02;;;;;;;9.77;0.63;;;;;;;3.95;51.31;101394.31;4979976;28;20059;-67
2021/04/10 02:13:49;;;;;;;4.20;0.55;;;;;;;3.91;51.04;101393.47;4957586;28;20093;-66
2021/04/10 02:16:21;;;;;;;4.47;0.40;;;;;;;3.85;51.42;101390.94;4976296;28;20043;-67
2021/04/10 02:18:50;;;;;;;5.05;0.75;;;;;;;3.90;51.33;101399.53;4962857;28;20038;-68
2021/04/10 02:21:24;;;;;;;6.50;0.52;;;;;;;3.84;51.48;101391.78;4960224;28;20042;-67
2021/04/10 02:23:50;;;;;;;3.95;0.80;;;;;;;3.80;51.48;101395.22;4979558;28;20081;-67
2021/04/10 02:26:22;;;;;;;1.35;0.38;;;;;;;3.86;51.41;101396.94;4964161;28;20817;-67
2021/04/10 02:28:48;;;;;;;1.70;0.43;;;;;;;3.74;51.28;101390.09;4962880;28;20037;-67
2021/04/10 02:31:35;;;;;;;1.05;0.38;;;;;;;3.64;51.52;101388.41;4964876;28;20061;-68
2021/04/10 02:34:08;;;;;;;3.30;0.50;;;;;;;3.58;51.65;101386.69;4976091;28;21061;-66
2021/04/10 02:36:36;;;;;;;4.72;0.35;;;;;;;3.54;51.66;101383.25;4980249;28;20045;-66
2021/04/10 02:39:05;;;;;;;5.57;0.45;;;;;;;3.68;51.72;101387.53;4960258;28;20041;-66
2021/04/10 02:41:30;;;;;;;3.40;0.47;;;;;;;3.77;51.34;101392.66;4963978;28;20165;-66
2021/04/10 02:44:08;;;;;;;6.57;0.70;;;;;;;3.75;51.12;101395.25;4978014;28;20135;-66
2021/04/10 02:46:43;;;;;;;3.08;0.70;;;;;;;3.73;51.54;101388.38;4979751;28;20042;-66
2021/04/10 02:49:16;;;;;;;2.78;0.57;;;;;;;3.80;51.47;101392.66;4966276;28;20121;-67
2021/04/10 02:51:49;;;;;;;2.17;0.47;;;;;;;3.79;51.56;101391.78;4961121;28;20134;-66
2021/04/10 02:54:24;;;;;;;4.47;1.45;;;;;;;3.68;51.80;101384.94;4959445;28;20058;-68
2021/04/10 02:57:01;;;;;;;3.67;0.82;;;;;;;3.74;51.73;101396.13;4967138;28;20034;-66
2021/04/10 02:59:28;;;;;;;6.50;0.65;;;;;;;3.67;51.58;101398.72;4987280;28;20039;-66
2021/04/10 03:01:58;;;;;;;2.45;0.60;;;;;;;3.61;51.77;101399.63;4965443;28;20062;-66
2021/04/10 03:04:26;;;;;;;6.63;0.50;;;;;;;3.39;51.71;101398.78;4976445;28;20073;-66
2021/04/10 03:06:52;;;;;;;5.70;1.27;;;;;;;3.38;50.92;101402.22;4962414;28;20035;-65
2021/04/10 03:09:19;;;;;;;5.38;0.65;;;;;;;3.25;50.03;101401.38;4964079;28;20069;-65
2021/04/10 03:11:45;;;;;;;6.43;0.30;;;;;;;3.10;49.60;101412.56;4961044;28;20099;-68
2021/04/10 03:14:11;;;;;;;6.68;0.10;;;;;;;2.95;49.31;101413.41;4961666;28;20471;-67
2021/04/10 03:16:42;;;;;;;0.73;0.20;;;;;;;3.39;48.12;101409.97;4977548;28;20387;-68
2021/04/10 03:19:14;;;;;;;3.75;0.40;;;;;;;3.49;46.91;101410.84;4962231;28;20070;-66
2021/04/10 03:21:46;;;;;;;7.97;0.52;;;;;;;3.47;46.67;101406.53;4965551;28;20044;-67
2021/04/10 03:24:13;;;;;;;4.55;0.38;;;;;;;3.30;46.35;101414.31;4962368;28;20039;-66
2021/04/10 03:26:41;;;;;;;11.45;0.55;;;;;;;3.32;46.46;101413.44;4976673;28;20038;-65
2021/04/10 03:29:11;;;;;;;3.15;0.13;;;;;;;3.56;46.01;101417.72;4963158;28;20421;-66
2021/04/10 03:31:45;;;;;;;6.85;0.30;;;;;;;3.37;47.02;101419.47;4974639;28;20037;-66
2021/04/10 03:34:12;;;;;;;6.00;0.47;;;;;;;3.56;46.36;101414.25;4964854;28;20034;-66
2021/04/10 03:36:39;;;;;;;3.17;0.35;;;;;;;3.67;46.24;101416.81;4973857;28;20106;-66
2021/04/10 03:39:05;;;;;;;5.38;0.57;;;;;;;3.62;46.32;101421.16;4990962;28;20030;-67
2021/04/10 03:41:32;;;;;;;6.32;0.30;;;;;;;3.57;46.42;101413.41;4978708;28;20166;-65
2021/04/10 03:43:58;;;;;;;4.55;0.20;;;;;;;3.36;46.94;101425.50;4990337;28;20541;-67
2021/04/10 03:46:24;;;;;;;7.72;0.22;;;;;;;3.50;47.09;101422.03;4961079;28;20047;-65
2021/04/10 03:48:50;;;;;;;4.88;0.50;;;;;;;3.51;47.08;101419.44;4977604;28;20571;-67
2021/04/10 03:51:22;;;;;;;5.75;0.22;;;;;;;3.52;46.97;101416.00;4959649;28;20026;-67
2021/04/10 03:53:53;;;;;;;5.10;0.30;;;;;;;3.56;46.77;101422.88;4959247;28;20048;-66
2021/04/10 03:56:22;;;;;;;3.88;0.65;;;;;;;3.51;46.94;101422.00;4965026;28;20034;-66
2021/04/10 03:58:48;;;;;;;5.80;0.55;;;;;;;3.45;47.17;101424.63;4980229;28;20061;-65
2021/04/10 04:01:25;;;;;;;1.52;0.30;;;;;;;3.41;47.23;101422.91;4975398;28;20030;-68
2021/04/10 04:03:51;;;;;;;6.18;0.30;;;;;;;3.44;47.37;101428.06;4965376;28;20515;-66
2021/04/10 04:06:17;;;;;;;1.30;0.20;;;;;;;3.44;47.34;101422.91;4964738;28;20128;-67
2021/04/10 04:08:43;;;;;;;6.78;0.45;;;;;;;3.47;47.25;101422.91;4963265;28;20067;-67
2021/04/10 04:11:08;;;;;;;8.30;0.52;;;;;;;3.47;47.13;101433.25;4963076;28;20081;-70
2021/04/10 04:13:34;;;;;;;8.48;0.95;;;;;;;3.38;47.39;101426.38;4964453;28;20058;-68
2021/04/10 04:15:59;;;;;;;8.23;0.88;;;;;;;3.30;47.45;101435.84;4960777;28;20031;-67
2021/04/10 04:18:25;;;;;;;3.53;0.30;;;;;;;3.27;48.00;101445.25;4964709;28;20085;-66
2021/04/10 04:20:50;;;;;;;2.70;0.40;;;;;;;3.28;48.19;101444.44;4961102;28;20034;-66
2021/04/10 04:23:16;;;;;;;5.63;0.90;;;;;;;3.25;48.18;101447.00;4956923;28;20133;-68
2021/04/10 04:25:41;;;;;;;8.35;0.95;;;;;;;3.24;48.10;101448.72;4978242;28;20072;-67
2021/04/10 04:28:07;;;;;;;2.72;0.20;;;;;;;3.24;48.17;101456.47;4959900;28;20042;-67
2021/04/10 04:30:32;;;;;;;9.07;0.20;;;;;;;3.20;48.08;101454.75;4960456;28;20089;-68
2021/04/10 04:32:58;;;;;;;7.88;0.25;;;;;;;3.19;48.46;101458.19;4958372;28;20082;-68
2021/04/10 04:35:23;;;;;;;4.80;0.20;;;;;;;3.08;48.58;101463.34;4965179;28;20027;-67
2021/04/10 04:37:49;;;;;;;3.80;0.30;;;;;;;3.00;48.96;101466.78;4971196;28;20034;-69
2021/04/10 04:40:15;;;;;;;8.95;0.98;;;;;;;3.10;48.86;101465.94;4968740;28;20130;-67
2021/04/10 04:42:40;;;;;;;1.77;0.25;;;;;;;3.17;48.77;101465.94;4993248;28;20089;-68
2021/04/10 04:45:07;;;;;;;9.48;0.85;;;;;;;3.18;48.63;101477.16;4962895;28;20031;-67
2021/04/10 04:47:32;;;;;;;3.78;0.28;;;;;;;3.12;48.37;101472.84;4957859;28;20071;-68
2021/04/10 04:49:58;;;;;;;2.08;0.20;;;;;;;3.04;48.47;101479.69;4962879;28;20058;-67
2021/04/10 04:52:24;;;;;;;4.38;0.30;;;;;;;3.01;48.80;101477.13;4989811;28;20035;-68
2021/04/10 04:54:50;;;;;;;1.25;0.17;;;;;;;3.03;48.86;101484.88;4960318;28;20035;-68
2021/04/10 04:57:15;;;;;;;5.38;0.20;;;;;;;3.02;48.96;101489.16;4962143;28;20654;-67
2021/04/10 04:59:41;;;;;;;4.15;0.20;;;;;;;2.92;49.37;101485.72;4985555;23;20634;-70
2021/04/10 05:02:07;;;;;;;4.15;0.30;;;;;;;2.94;49.66;101485.72;4979253;28;20122;-70
2021/04/10 05:04:32;;;;;;;4.10;0.50;;;;;;;3.01;49.52;101499.53;4981272;28;20063;-70
2021/04/10 05:06:58;;;;;;;10.25;0.85;;;;;;;3.14;49.17;101485.75;4969102;28;20479;-70
2021/04/10 05:09:23;;;;;;;2.60;1.35;;;;;;;3.21;48.98;101481.47;4983009;28;20056;-70
2021/04/10 05:11:50;;;;;;;3.53;0.57;;;;;;;3.26;48.78;101490.06;4980314;28;20057;-70
2021/04/10 05:14:16;;;;;;;5.80;0.55;;;;;;;3.26;48.85;101492.66;4981752;28;20450;-70
2021/04/10 05:16:41;;;;;;;5.57;0.82;;;;;;;3.29;48.72;101505.59;4981357;28;20207;-70
2021/04/10 05:19:07;;;;;;;2.63;0.20;;;;;;;3.29;48.87;101501.31;4983120;28;20034;-70
2021/04/10 05:21:33;;;;;;;7.32;0.93;;;;;;;3.25;49.04;101503.81;5007137;28;20038;-70
2021/04/10 05:23:59;;;;;;;4.40;0.43;;;;;;;3.28;49.02;101509.00;4985863;28;20380;-70
2021/04/10 05:26:25;;;;;;;4.90;0.30;;;;;;;3.35;49.05;101514.22;4983433;28;20033;-70
2021/04/10 05:28:50;;;;;;;3.90;0.20;;;;;;;3.39;48.74;101517.66;4982785;28;20038;-70
2021/04/10 05:31:16;;;;;;;2.90;0.30;;;;;;;3.44;49.11;101520.25;4971232;28;20161;-70
2021/04/10 05:33:43;;;;;;;5.65;0.30;;;;;;;3.63;49.00;101528.84;4985087;28;20034;-70
2021/04/10 05:36:09;;;;;;;3.88;0.57;;;;;;;3.77;48.46;101527.13;4999403;28;20117;-71
2021/04/10 05:38:34;;;;;;;3.97;0.45;;;;;;;3.88;47.84;101525.38;4984170;28;20117;-70
2021/04/10 05:41:00;;;;;;;2.97;0.35;;;;;;;4.01;47.39;101528.81;4988646;28;20023;-69
2021/04/10 05:43:26;;;;;;;6.35;1.15;;;;;;;4.22;46.85;101533.91;4988617;28;20156;-70
2021/04/10 05:45:51;;;;;;;2.90;0.40;;;;;;;4.34;46.02;101545.09;4987983;28;20030;-71
2021/04/10 05:48:17;;;;;;;3.45;0.65;;;;;;;4.57;45.71;101550.22;4985640;28;20939;-70
2021/04/10 05:50:43;;;;;;;4.03;0.43;;;;;;;4.82;45.58;101551.81;4973388;28;20462;-70
2021/04/10 05:53:08;;;;;;;8.38;0.43;;;;;;;5.35;44.99;101560.16;4988470;28;20038;-70
2021/04/10 05:55:34;;;;;;;5.35;0.50;;;;;;;7.00;41.29;101550.63;4987703;28;20483;-70
2021/04/10 05:58:00;;;;;;;2.83;0.40;;;;;;;7.76;38.51;101548.63;4988333;28;20043;-71
2021/04/10 06:00:25;;;;;;;5.72;1.48;;;;;;;7.66;38.92;101553.09;4971704;28;20034;-71
2021/04/10 06:02:55;;;;;;;8.43;0.70;;;;;;;7.58;38.20;101560.19;4982954;28;20046;-71
2021/04/10 06:05:21;;;;;;;1.65;0.40;;;;;;;7.33;37.49;101560.56;4987644;28;20610;-71
2021/04/10 06:07:48;;;;;;;1.30;0.25;;;;;;;7.31;37.63;101561.44;5002499;28;20038;-72
2021/04/10 06:10:15;;;;;;;3.28;0.80;;;;;;;7.15;37.15;101563.41;4983370;28;20030;-71
2021/04/10 06:12:41;;;;;;;10.73;0.80;;;;;;;7.54;36.39;101561.09;4984172;28;20043;-71
2021/04/10 06:15:09;;;;;;;7.13;0.50;;;;;;;7.73;35.90;101559.94;4984878;28;20034;-71
2021/04/10 06:17:35;;;;;;;5.85;0.35;;;;;;;7.62;37.26;101564.44;4983091;28;20109;-71
2021/04/10 06:20:02;;;;;;;3.47;0.40;;;;;;;8.45;35.24;101554.25;4989108;28;20496;-71
2021/04/10 06:22:28;;;;;;;4.28;0.30;;;;;;;9.42;33.66;101565.19;4994712;28;20039;-70
2021/04/10 06:24:53;;;;;;;6.55;1.00;;;;;;;9.21;33.26;101570.03;5000166;28;20026;-71
2021/04/10 06:27:19;;;;;;;2.55;0.20;;;;;;;9.17;32.77;101563.16;4984239;28;20085;-71
2021/04/10 06:29:44;;;;;;;7.22;0.60;;;;;;;9.27;31.90;101572.47;4986719;28;20030;-71
2021/04/10 06:32:10;;;;;;;8.18;0.32;;;;;;;9.02;32.29;101574.81;4987594;28;20089;-71
2021/04/10 06:34:36;;;;;;;2.53;0.40;;;;;;;8.61;32.86;101567.84;4969495;28;20133;-71
2021/04/10 06:37:01;;;;;;;5.63;0.40;;;;;;;8.08;34.00;101568.00;5000759;28;20500;-71
2021/04/10 06:39:27;;;;;;;5.15;0.80;;;;;;;8.70;33.73;101573.72;4985689;28;20392;-71
2021/04/10 06:41:53;;;;;;;4.78;0.95;;;;;;;10.61;29.96;101575.09;4969422;28;20129;-70
2021/04/10 06:44:19;;;;;;;1.63;0.20;;;;;;;11.09;28.29;101580.72;4984400;28;20037;-72
2021/04/10 06:46:47;;;;;;;2.30;0.65;;;;;;;11.24;28.41;101585.44;4985411;28;20690;-69
2021/04/10 06:49:15;;;;;;;5.45;0.60;;;;;;;11.83;27.92;101595.78;4999353;28;20071;-70
2021/04/10 06:51:40;;;;;;;3.22;0.30;;;;;;;11.22;27.74;101589.91;5002296;28;20047;-70
2021/04/10 06:54:07;;;;;;;4.85;0.20;;;;;;;11.63;28.27;101587.69;5000240;28;20105;-70
2021/04/10 06:56:36;;;;;;;10.60;0.30;;;;;;;11.61;29.01;101592.13;4985805;28;20212;-71
2021/04/10 06:59:11;;;;;;;7.60;0.40;;;;;;;13.22;26.56;101593.34;4986885;28;20042;-72
2021/04/10 07:01:39;;;;;;;6.65;0.28;;;;;;;14.09;24.21;101596.78;4985253;28;20038;-70
2021/04/10 07:04:05;;;;;;;4.07;0.20;;;;;;;13.78;23.67;101592.81;4984456;28;20030;-70
2021/04/10 07:06:31;;;;;;;2.90;0.20;;;;;;;12.89;25.78;101593.75;4983816;28;20045;-70
2021/04/10 07:08:58;;;;;;;9.85;0.40;;;;;;;12.07;25.75;101601.09;4986404;28;20554;-70
2021/04/10 07:11:24;;;;;;;3.53;0.20;;;;;;;11.81;26.51;101608.06;4984317;28;20522;-69
2021/04/10 07:13:50;;;;;;;2.35;0.20;;;;;;;11.03;26.21;101608.75;4986013;28;20076;-71
2021/04/10 07:16:16;;;;;;;1.00;0.20;;;;;;;11.74;25.85;101606.53;4984343;28;20160;-70
2021/04/10 07:18:42;;;;;;;4.75;0.68;;;;;;;12.04;24.44;101598.56;4988569;28;20027;-72
2021/04/10 07:21:25;;;;;;;3.75;0.35;;;;;;;13.20;23.75;101597.81;4983098;28;20030;-71
2021/04/10 07:23:53;;;;;;;1.58;0.10;;;;;;;12.93;23.37;101595.34;4985893;28;20077;-70
2021/04/10 07:26:21;;;;;;;3.17;0.22;;;;;;;14.69;22.00;101602.88;4980497;28;20034;-70
2021/04/10 07:28:47;;;;;;;1.90;0.13;;;;;;;15.46;19.19;101591.38;4983827;28;20419;-70
2021/04/10 07:31:16;;;;;;;2.30;0.38;;;;;;;15.58;19.67;101596.03;4997396;28;20572;-71
2021/04/10 07:33:43;;;;;;;2.75;0.57;;;;;;;15.21;21.25;101596.94;4980513;28;20044;-69
2021/04/10 07:36:10;;;;;;;2.40;0.17;;;;;;;13.94;21.95;101601.78;4969321;28;20046;-70
2021/04/10 07:38:39;;;;;;;0.90;0.13;;;;;;;13.05;21.67;101607.16;4982958;28;20050;-71
2021/04/10 07:41:20;;;;;;;3.92;0.30;;;;;;;12.78;22.69;101601.16;4982845;28;20026;-69
2021/04/10 07:43:46;;;;;;;2.33;0.40;;;;;;;13.20;21.99;101597.81;4997087;28;20042;-71
2021/04/10 07:46:13;;;;;;;2.97;0.30;;;;;;;14.30;20.06;101603.75;4984799;28;20169;-69
2021/04/10 07:48:58;;;;;;;5.07;0.30;;;;;;;14.81;19.75;101595.34;5000733;28;20616;-70
2021/04/10 07:51:24;;;;;;;1.83;0.20;;;;;;;14.92;20.16;101600.97;4980533;28;20116;-70
2021/04/10 07:53:49;;;;;;;4.45;0.40;;;;;;;14.19;20.40;101606.00;4983816;28;20058;-70
2021/04/10 07:56:15;;;;;;;5.82;0.20;;;;;;;13.93;21.53;101600.06;4982950;28;20035;-70
2021/04/10 07:58:40;;;;;;;1.60;0.17;;;;;;;14.87;19.40;101597.69;4969232;28;20038;-70
2021/04/10 08:01:08;;;;;;;5.63;0.35;;;;;;;14.88;19.71;101594.13;4997394;28;20080;-71
2021/04/10 08:03:36;;;;;;;1.48;0.20;;;;;;;14.98;19.50;101601.53;4982919;28;20046;-70
2021/04/10 08:06:08;;;;;;;4.68;0.10;;;;;;;15.30;18.81;101607.06;4995184;28;20055;-69
2021/04/10 08:08:43;;;;;;;2.22;0.30;;;;;;;15.36;19.05;101603.28;4984639;28;20066;-69
2021/04/10 08:11:09;;;;;;;4.88;0.30;;;;;;;16.27;18.00;101610.16;4962596;28;20043;-70
2021/04/10 08:13:35;;;;;;;2.83;0.43;;;;;;;14.34;19.60;101621.09;4979912;28;20091;-70
2021/04/10 08:16:10;;;;;;;5.35;0.20;;;;;;;14.95;18.61;101628.00;4985596;28;20034;-69
2021/04/10 08:18:41;;;;;;;5.00;0.25;;;;;;;13.90;19.48;101631.75;4982760;28;20096;-69
2021/04/10 08:21:07;;;;;;;2.97;0.15;;;;;;;13.38;20.21;101632.97;4993413;28;20042;-69
2021/04/10 08:23:33;;;;;;;1.95;0.10;;;;;;;13.56;19.26;101634.00;4987163;28;20053;-69
2021/04/10 08:25:58;;;;;;;1.42;0.20;;;;;;;14.08;19.57;101639.78;4984823;28;20046;-69
2021/04/10 08:28:24;;;;;;;2.60;0.10;;;;;;;14.95;18.77;101642.94;4987091;28;20034;-69
2021/04/10 08:30:49;;;;;;;2.42;0.10;;;;;;;15.86;17.80;101644.72;4985839;28;20026;-69
2021/04/10 08:33:15;;;;;;;0.55;0.10;;;;;;;16.71;17.93;101633.31;4971073;28;20029;-69
2021/04/10 08:35:40;;;;;;;4.75;0.17;;;;;;;15.84;16.91;101641.34;4970145;28;20046;-69
2021/04/10 08:38:07;;;;;;;1.73;0.40;;;;;;;15.64;18.80;101644.97;4987414;28;20049;-69
2021/04/10 08:40:35;;;;;;;3.22;0.20;;;;;;;14.22;19.94;101647.91;4984184;28;20038;-69
2021/04/10 08:43:01;;;;;;;3.75;0.22;;;;;;;13.95;19.98;101657.81;4980085;28;20403;-70
2021/04/10 08:45:35;;;;;;;3.25;0.20;;;;;;;13.42;20.13;101661.69;4982404;28;20462;-69
2021/04/10 08:48:06;;;;;;;1.90;0.20;;;;;;;13.31;19.70;101658.63;5000033;28;20041;-69
2021/04/10 08:50:38;;;;;;;3.85;0.30;;;;;;;13.22;20.68;101664.22;5000625;28;20038;-71
2021/04/10 08:53:09;;;;;;;8.52;1.52;;;;;;;12.71;20.24;101658.25;4984123;28;20038;-69
2021/04/10 08:55:38;;;;;;;4.20;0.37;;;;;;;12.04;21.31;101666.69;4969663;28;20700;-70
2021/04/10 08:58:22;;;;;;;3.38;0.10;;;;;;;11.31;22.56;101672.47;4984660;28;20046;-71
2021/04/10 09:00:59;;;;;;;5.35;0.30;;;;;;;11.14;23.67;101679.09;4985184;28;20030;-69
2021/04/10 09:03:50;;;;;;;2.38;0.20;;;;;;;10.94;23.45;101671.81;4985879;28;20447;-69
2021/04/10 09:06:15;;;;;;;7.75;0.22;;;;;;;11.03;22.53;101675.94;4984180;28;20041;-69
2021/04/10 09:08:41;;;;;;;1.52;0.60;;;;;;;11.40;22.40;101680.06;4984071;28;20034;-70
2021/04/10 09:11:08;;;;;;;5.72;0.20;;;;;;;11.19;23.18;101682.41;4985146;28;20034;-69
2021/04/10 09:13:42;;;;;;;1.80;0.10;;;;;;;11.11;22.99;101687.03;4984351;28;20086;-69
2021/04/10 09:16:23;;;;;;;2.45;0.13;;;;;;;10.66;23.36;101683.91;4984636;28;20533;-69
2021/04/10 09:19:01;;;;;;;1.75;0.10;;;;;;;10.77;23.17;101679.25;4987139;28;20049;-69
2021/04/10 09:21:42;;;;;;;2.55;0.20;;;;;;;11.27;23.29;101684.81;4994259;28;20126;-70
2021/04/10 09:24:26;;;;;;;2.75;0.40;;;;;;;11.38;23.39;101682.72;4994329;28;20046;-69
2021/04/10 09:27:18;;;;;;;4.43;0.25;;;;;;;11.14;22.60;101679.09;4979261;28;20038;-69
2021/04/10 09:29:57;;;;;;;2.42;0.10;;;;;;;10.74;23.53;101680.19;4966092;28;20042;-69
2021/04/10 09:32:29;;;;;;;3.97;0.43;;;;;;;10.95;23.31;101678.78;4967524;28;20044;-69
2021/04/10 09:34:55;;;;;;;2.35;0.20;;;;;;;10.52;23.59;101684.28;4983767;28;20038;-69
2021/04/10 09:37:21;;;;;;;2.80;0.10;;;;;;;10.56;23.08;101692.00;4984340;28;20034;-71
2021/04/10 09:40:00;;;;;;;6.93;0.60;;;;;;;10.98;22.08;101688.28;4984171;28;20033;-69
2021/04/10 09:42:36;;;;;;;0.90;0.32;;;;;;;11.76;22.90;101691.16;4979722;28;20121;-68
2021/04/10 09:45:08;;;;;;;3.53;0.10;;;;;;;11.11;23.02;101688.78;4980938;28;20034;-71
2021/04/10 09:47:51;;;;;;;4.25;0.10;;;;;;;11.38;22.71;101693.19;4980367;28;20114;-69
2021/04/10 09:50:18;;;;;;;2.53;0.50;;;;;;;11.73;20.99;101699.13;4984125;28;20030;-69
2021/04/10 09:52:43;;;;;;;0.47;0.10;;;;;;;11.88;20.76;101701.25;4983500;28;20468;-69
2021/04/10 09:55:10;;;;;;;0.88;0.20;;;;;;;11.93;22.30;101695.00;4986115;28;20113;-69
2021/04/10 09:57:36;;;;;;;3.50;0.20;;;;;;;11.99;23.14;101694.81;4984095;28;20038;-70
2021/04/10 10:00:03;;;;;;;3.50;0.20;;;;;;;12.34;22.00;101691.00;4979851;28;20092;-70
2021/04/10 10:02:30;;;;;;;2.55;0.10;;;;;;;12.23;22.26;101687.91;4981939;28;20073;-69
2021/04/10 10:04:55;;;;;;;1.88;0.50;;;;;;;11.73;23.40;101683.41;4983878;28;20664;-69
2021/04/10 10:07:22;;;;;;;2.97;0.20;;;;;;;12.32;22.38;101686.72;4982092;28;20042;-69
2021/04/10 10:10:08;;;;;;;2.22;0.10;;;;;;;12.19;21.98;101689.75;4981245;28;20026;-70
2021/04/10 10:12:33;;;;;;;2.35;0.22;;;;;;;12.38;20.94;101681.25;4981666;28;20157;-69
2021/04/10 10:14:59;;;;;;;0.80;0.10;;;;;;;12.51;22.39;101674.66;4982972;28;20712;-69
2021/04/10 10:17:28;;;;;;;2.55;0.32;;;;;;;11.82;23.59;101677.00;4997849;28;20036;-69
2021/04/10 10:20:14;;;;;;;3.78;0.25;;;;;;;11.46;23.08;101683.34;4983643;28;20447;-70
2021/04/10 10:22:40;;;;;;;4.00;0.43;;;;;;;11.75;22.92;101684.19;4986570;28;20042;-70
2021/04/10 10:25:07;;;;;;;3.42;0.17;;;;;;;11.63;22.09;101693.28;5000620;28;20026;-70
2021/04/10 10:27:40;;;;;;;1.30;0.20;;;;;;;11.07;22.35;101697.63;4984026;28;20077;-69
2021/04/10 10:30:19;;;;;;;1.92;0.15;;;;;;;11.38;21.57;101685.34;4987326;28;20026;-69
2021/04/10 10:32:50;;;;;;;2.08;0.20;;;;;;;11.90;21.03;101701.22;5000555;28;20096;-71
2021/04/10 10:35:18;;;;;;;3.40;0.10;;;;;;;11.95;21.70;101701.06;4988701;28;20061;-69
2021/04/10 10:37:50;;;;;;;2.45;0.10;;;;;;;11.97;20.82;101694.00;4986825;28;20057;-70
2021/04/10 10:40:21;;;;;;;3.10;0.25;;;;;;;11.90;19.94;101698.59;4985792;28;20029;-68
2021/04/10 10:43:05;;;;;;;2.17;0.10;;;;;;;11.43;22.13;101704.38;4985861;28;20538;-68
2021/04/10 10:45:42;;;;;;;2.47;0.10;;;;;;;11.11;20.27;101709.72;5000870;28;20512;-70
2021/04/10 10:48:23;;;;;;;3.70;0.10;;;;;;;11.21;21.61;101712.00;4970853;28;20041;-70
2021/04/10 10:51:19;;;;;;;4.43;0.85;;;;;;;11.11;19.99;101705.34;4984134;28;20034;-69
2021/04/10 10:53:44;;;;;;;4.93;0.20;;;;;;;12.04;19.54;101699.00;4984004;28;20534;-70
2021/04/10 10:56:12;;;;;;;5.10;0.30;;;;;;;12.25;20.00;101701.81;4982836;28;20031;-69
2021/04/10 10:58:52;;;;;;;2.05;0.15;;;;;;;11.98;21.05;101699.19;4984621;28;20617;-70
2021/04/10 11:01:30;;;;;;;8.57;0.40;;;;;;;11.62;21.05;101701.19;4999817;28;20034;-70
2021/04/10 11:04:05;;;;;;;3.75;0.38;;;;;;;11.39;22.38;101702.75;4998621;28;20041;-69
2021/04/10 11:06:45;;;;;;;3.78;0.15;;;;;;;11.44;22.09;101702.59;4981879;28;20038;-70
2021/04/10 11:09:16;;;;;;;1.67;0.15;;;;;;;11.03;22.90;101700.31;4983683;28;20042;-69
2021/04/10 11:11:44;;;;;;;1.83;0.00;;;;;;;10.60;22.63;101705.88;4984718;28;20042;-69
2021/04/10 11:14:10;;;;;;;6.13;0.10;;;;;;;10.35;22.51;101693.44;4992530;28;20110;-69
2021/04/10 11:16:43;;;;;;;1.75;0.10;;;;;;;10.57;22.51;101698.97;4986088;28;20034;-69
2021/04/10 11:19:08;;;;;;;3.00;0.10;;;;;;;11.11;23.42;101694.88;4985417;28;20030;-69
2021/04/10 11:21:34;;;;;;;1.98;0.15;;;;;;;11.51;22.70;101696.31;4992342;28;20767;-69
2021/04/10 11:24:10;;;;;;;0.43;0.03;;;;;;;11.15;21.84;101690.41;4985950;28;20509;-69
2021/04/10 11:26:54;;;;;;;2.03;0.20;;;;;;;11.42;21.65;101693.97;4982459;28;20686;-69
2021/04/10 11:29:32;;;;;;;4.72;0.15;;;;;;;11.85;21.64;101687.41;4985951;28;20077;-69
2021/04/10 11:32:22;;;;;;;1.10;0.10;;;;;;;11.59;20.54;101686.44;5000656;28;20686;-69
2021/04/10 11:34:52;;;;;;;1.33;0.30;;;;;;;11.16;21.72;101687.75;4980611;28;20038;-69
2021/04/10 11:37:28;;;;;;;1.85;0.10;;;;;;;10.74;22.67;101689.78;4985077;28;20037;-69
2021/04/10 11:40:04;;;;;;;0.30;0.10;;;;;;;11.51;21.17;101682.34;4983836;28;20038;-69